Time;durP1;ratioP1;P1;durP2;ratioP2;P2;SDS_P1;SDS_P2;PMS_P1;PMS_P2;Temp;Humidity;BMP_temperature;BMP_pressure;BME280_temperature;BME280_humidity;BME280_pressure;Samples;Min_cycle;Max_cycle;Signal;HPM_P1;HPM_P2
2022/09/10 00:01:21;;;;;;;19.38;17.13;;;14.80;99.90;;;;;;5095141;28;20582;-50
2022/09/10 00:03:48;;;;;;;18.42;16.58;;;14.70;99.90;;;;;;5093327;27;20383;-52
2022/09/10 00:06:18;;;;;;;18.98;16.88;;;14.70;99.90;;;;;;5077820;28;20553;-50
2022/09/10 00:08:45;;;;;;;19.08;17.17;;;14.70;99.90;;;;;;5095712;28;20557;-49
2022/09/10 00:11:13;;;;;;;18.90;16.90;;;14.70;99.90;;;;;;5080162;28;20055;-49
2022/09/10 00:13:40;;;;;;;19.17;17.30;;;14.70;99.90;;;;;;5096556;28;20161;-45
2022/09/10 00:16:13;;;;;;;19.15;17.25;;;14.70;99.90;;;;;;5093979;28;20104;-43
2022/09/10 00:18:40;;;;;;;20.35;17.75;;;14.80;99.90;;;;;;5092600;28;20402;-43
2022/09/10 00:21:09;;;;;;;19.88;17.80;;;14.70;99.90;;;;;;5079445;28;20043;-44
2022/09/10 00:23:36;;;;;;;19.38;17.42;;;14.80;99.90;;;;;;5112979;27;20052;-45
2022/09/10 00:26:10;;;;;;;20.00;18.10;;;14.80;99.90;;;;;;5058250;28;20533;-45
2022/09/10 00:28:37;;;;;;;18.90;16.95;;;14.70;99.90;;;;;;5076096;28;20048;-43
2022/09/10 00:31:03;;;;;;;20.15;18.10;;;14.70;99.90;;;;;;5078297;28;20044;-49
2022/09/10 00:33:29;;;;;;;20.85;18.77;;;14.80;99.90;;;;;;5096103;28;20054;-49
2022/09/10 00:35:58;;;;;;;21.35;19.15;;;14.80;99.90;;;;;;5095628;28;20075;-46
2022/09/10 00:38:27;;;;;;;20.67;18.65;;;14.80;99.90;;;;;;5096898;28;20119;-42
2022/09/10 00:40:53;;;;;;;20.88;19.02;;;14.80;99.90;;;;;;5092807;28;20047;-48
2022/09/10 00:43:20;;;;;;;21.15;19.08;;;14.80;99.90;;;;;;5098694;28;20047;-47
2022/09/10 00:45:51;;;;;;;20.75;18.58;;;14.80;99.90;;;;;;5092253;28;20385;-43
2022/09/10 00:48:21;;;;;;;20.90;18.95;;;14.80;99.90;;;;;;5093831;28;20040;-48
2022/09/10 00:50:50;;;;;;;22.38;20.08;;;14.80;99.90;;;;;;5073883;28;20051;-48
2022/09/10 00:53:23;;;;;;;20.02;18.05;;;14.80;99.90;;;;;;5077023;28;20391;-49
2022/09/10 00:55:53;;;;;;;21.42;19.45;;;14.80;99.90;;;;;;5073186;28;20354;-42
2022/09/10 00:58:21;;;;;;;;;;;14.80;99.90;;;;;;5058968;28;20487;-43
2022/09/10 01:00:47;;;;;;;22.02;19.77;;;14.70;99.90;;;;;;5095325;28;20015;-44
2022/09/10 01:03:15;;;;;;;21.65;19.58;;;14.70;99.90;;;;;;5059392;28;20455;-47
2022/09/10 01:05:45;;;;;;;21.35;19.35;;;14.80;99.90;;;;;;5095934;28;20589;-45
2022/09/10 01:08:16;;;;;;;23.15;20.75;;;14.80;99.90;;;;;;5114268;27;20097;-47
2022/09/10 01:11:30;;;;;;;23.35;20.88;;;14.80;99.90;;;;;;5089328;27;20086;-44
2022/09/10 01:14:11;;;;;;;22.02;19.88;;;14.80;99.90;;;;;;5077159;27;20410;-48
2022/09/10 01:16:50;;;;;;;23.55;21.25;;;14.80;99.90;;;;;;5092633;28;20491;-48
2022/09/10 01:20:04;;;;;;;24.52;22.27;;;14.80;99.90;;;;;;5094190;28;20039;-42
2022/09/10 01:22:39;;;;;;;24.90;22.33;;;14.80;99.90;;;;;;5085418;28;20047;-43
2022/09/10 01:25:24;;;;;;;24.08;21.85;;;14.90;99.90;;;;;;5096040;28;20047;-46
2022/09/10 01:27:53;;;;;;;26.25;23.15;;;14.80;99.90;;;;;;5095814;28;20047;-43
2022/09/10 01:30:23;;;;;;;24.80;22.33;;;14.90;99.90;;;;;;5078235;28;21870;-46
2022/09/10 01:33:57;;;;;;;24.08;21.70;;;14.90;99.90;;;;;;5067690;28;20133;-48
2022/09/10 01:36:27;;;;;;;23.77;21.33;;;14.90;99.90;;;;;;5110043;27;20051;-46
2022/09/10 01:38:54;;;;;;;25.67;23.00;;;14.90;99.90;;;;;;5098223;28;20259;-44
2022/09/10 01:41:27;;;;;;;24.25;22.10;;;14.90;99.90;;;;;;5077354;28;20386;-44
2022/09/10 01:43:53;;;;;;;25.38;22.73;;;14.90;99.90;;;;;;5076162;28;20573;-43
2022/09/10 01:46:28;;;;;;;26.30;23.73;;;14.90;99.90;;;;;;5094842;28;20047;-44
2022/09/10 01:49:30;;;;;;;25.23;22.77;;;14.90;99.90;;;;;;5111142;27;20067;-44
2022/09/10 01:52:24;;;;;;;24.73;22.27;;;14.90;99.90;;;;;;5080703;28;20043;-44
2022/09/10 01:55:09;;;;;;;25.65;23.15;;;14.90;99.90;;;;;;5109041;27;20741;-44
2022/09/10 01:57:43;;;;;;;25.55;22.88;;;15.00;99.90;;;;;;5077934;28;20135;-47
2022/09/10 02:00:11;;;;;;;28.15;25.08;;;14.90;99.90;;;;;;5092364;28;20071;-50
2022/09/10 02:03:00;;;;;;;25.70;23.27;;;14.90;99.90;;;;;;5098459;28;20408;-46
2022/09/10 02:05:34;;;;;;;24.77;22.45;;;14.90;99.90;;;;;;5077702;28;20138;-47
2022/09/10 02:08:15;;;;;;;24.80;22.13;;;15.00;99.90;;;;;;5077852;28;20410;-49
2022/09/10 02:10:54;;;;;;;23.63;21.20;;;15.00;99.90;;;;;;5097971;27;20047;-52
2022/09/10 02:13:23;;;;;;;25.02;22.58;;;15.00;99.90;;;;;;5094641;28;20039;-51
2022/09/10 02:16:11;;;;;;;25.55;22.90;;;15.00;99.90;;;;;;5073331;28;20055;-45
2022/09/10 02:18:42;;;;;;;24.42;21.92;;;15.00;99.90;;;;;;5090035;28;20361;-44
2022/09/10 02:21:11;;;;;;;25.02;22.52;;;15.00;99.90;;;;;;5095496;28;20043;-49
2022/09/10 02:23:48;;;;;;;25.35;22.80;;;15.00;99.90;;;;;;5088958;28;20090;-45
2022/09/10 02:26:15;;;;;;;25.73;23.15;;;15.00;99.90;;;;;;5109826;27;20079;-47
2022/09/10 02:28:48;;;;;;;27.77;24.88;;;15.00;99.90;;;;;;5066783;28;20130;-52
2022/09/10 02:31:16;;;;;;;25.77;23.27;;;15.00;99.90;;;;;;5076671;28;20138;-52
2022/09/10 02:33:44;;;;;;;25.45;22.17;;;15.00;99.90;;;;;;5076666;28;20562;-45
2022/09/10 02:36:11;;;;;;;26.23;23.50;;;15.00;99.90;;;;;;5076658;28;20044;-43
2022/09/10 02:38:37;;;;;;;26.02;23.48;;;15.00;99.90;;;;;;5111010;27;20071;-48
2022/09/10 02:41:04;;;;;;;27.48;24.83;;;14.90;99.90;;;;;;5091471;28;20039;-46
2022/09/10 02:43:31;;;;;;;27.30;24.65;;;14.90;99.90;;;;;;5044234;28;20044;-47
2022/09/10 02:46:01;;;;;;;25.85;23.25;;;14.90;99.90;;;;;;5091569;28;20124;-46
2022/09/10 02:48:29;;;;;;;27.75;25.05;;;14.90;99.90;;;;;;5094810;28;20112;-47
2022/09/10 02:50:56;;;;;;;27.90;24.40;;;15.00;99.90;;;;;;5094946;28;20526;-51
2022/09/10 02:53:25;;;;;;;26.10;23.58;;;14.90;99.90;;;;;;5051018;28;20586;-53
2022/09/10 02:55:55;;;;;;;27.75;24.75;;;14.90;99.90;;;;;;5061268;28;20098;-50
2022/09/10 02:58:21;;;;;;;27.55;24.73;;;14.90;99.90;;;;;;5077101;28;20051;-49
2022/09/10 03:00:47;;;;;;;26.10;23.30;;;14.80;99.90;;;;;;5067185;28;20071;-51
2022/09/10 03:03:16;;;;;;;26.30;23.63;;;14.80;99.90;;;;;;5053443;28;20047;-50
2022/09/10 03:05:42;;;;;;;26.33;23.55;;;14.80;99.90;;;;;;5090336;28;20090;-43
2022/09/10 03:08:09;;;;;;;29.13;23.92;;;14.80;99.90;;;;;;5092075;28;20527;-46
2022/09/10 03:10:37;;;;;;;28.65;25.65;;;14.80;99.90;;;;;;5077290;28;20097;-45
2022/09/10 03:13:05;;;;;;;28.08;25.23;;;14.80;99.90;;;;;;5061404;28;20040;-44
2022/09/10 03:15:32;;;;;;;28.98;25.98;;;14.80;99.90;;;;;;5094490;28;20119;-45
2022/09/10 03:17:58;;;;;;;27.23;24.27;;;14.80;99.90;;;;;;5091396;28;20438;-44
2022/09/10 03:20:25;;;;;;;27.15;24.35;;;14.80;99.90;;;;;;5097491;27;20111;-47
2022/09/10 03:22:52;;;;;;;27.38;24.65;;;14.80;99.90;;;;;;5080587;28;20096;-50
2022/09/10 03:25:18;;;;;;;27.33;24.48;;;14.80;99.90;;;;;;5059696;28;20054;-46
2022/09/10 03:27:45;;;;;;;28.98;26.02;;;14.80;99.90;;;;;;5116761;27;20043;-52
2022/09/10 03:30:12;;;;;;;28.25;25.27;;;14.80;99.90;;;;;;5078589;28;20513;-51
2022/09/10 03:32:38;;;;;;;27.58;24.80;;;14.80;99.90;;;;;;5092795;28;20043;-49
2022/09/10 03:35:06;;;;;;;28.10;25.30;;;14.90;99.90;;;;;;5098872;28;20447;-50
2022/09/10 03:37:32;;;;;;;27.90;24.55;;;14.90;99.90;;;;;;5097314;28;20043;-49
2022/09/10 03:39:59;;;;;;;27.88;25.20;;;14.90;99.90;;;;;;5098012;28;20637;-52
2022/09/10 03:42:25;;;;;;;28.75;25.65;;;14.90;99.90;;;;;;5099751;28;20130;-50
2022/09/10 03:44:52;;;;;;;26.38;23.35;;;15.00;99.90;;;;;;5096831;28;20086;-49
2022/09/10 03:47:18;;;;;;;31.70;25.48;;;15.00;99.90;;;;;;5079176;28;20521;-51
2022/09/10 03:49:44;;;;;;;27.80;24.85;;;15.00;99.90;;;;;;5096266;28;20537;-52
2022/09/10 03:52:12;;;;;;;27.98;24.75;;;15.00;99.90;;;;;;5114142;27;20086;-50
2022/09/10 03:54:40;;;;;;;33.17;26.77;;;14.90;99.90;;;;;;5079563;28;20039;-44
2022/09/10 03:57:07;;;;;;;28.92;25.88;;;15.00;99.90;;;;;;5094802;28;20051;-45
2022/09/10 03:59:34;;;;;;;28.75;24.42;;;15.00;99.90;;;;;;5096607;28;20044;-44
2022/09/10 04:02:01;;;;;;;25.95;23.38;;;15.00;99.90;;;;;;5079918;28;20044;-46
2022/09/10 04:04:29;;;;;;;26.77;23.95;;;15.00;99.90;;;;;;5081797;28;20058;-47
2022/09/10 04:06:55;;;;;;;26.90;23.92;;;15.10;99.90;;;;;;5097779;28;20043;-44
2022/09/10 04:09:22;;;;;;;26.80;23.67;;;15.10;99.90;;;;;;5097215;27;20047;-48
2022/09/10 04:11:48;;;;;;;31.35;24.85;;;15.00;99.90;;;;;;5097659;28;20456;-47
2022/09/10 04:14:14;;;;;;;28.95;25.90;;;15.10;99.90;;;;;;5105540;27;20580;-44
2022/09/10 04:16:41;;;;;;;29.42;25.55;;;15.10;99.90;;;;;;5081555;28;20115;-45
2022/09/10 04:19:12;;;;;;;27.02;24.10;;;15.00;99.90;;;;;;5085979;28;20126;-45
2022/09/10 04:21:39;;;;;;;26.42;23.63;;;15.10;99.90;;;;;;5096289;28;20631;-44
2022/09/10 04:24:08;;;;;;;29.20;25.25;;;15.10;99.90;;;;;;5093956;28;20048;-47
2022/09/10 04:26:34;;;;;;;28.15;23.98;;;15.10;99.90;;;;;;5097215;28;20555;-47
2022/09/10 04:29:00;;;;;;;30.27;27.00;;;15.10;99.90;;;;;;5058861;28;20113;-48
2022/09/10 04:31:26;;;;;;;27.30;24.40;;;15.10;99.90;;;;;;5095122;28;20047;-43
2022/09/10 04:34:00;;;;;;;26.85;24.05;;;15.10;99.90;;;;;;5095710;28;20098;-45
2022/09/10 04:36:26;;;;;;;29.35;24.42;;;15.10;99.90;;;;;;5095424;28;20097;-47
2022/09/10 04:38:52;;;;;;;26.55;24.00;;;15.10;99.90;;;;;;5098504;27;20114;-45
2022/09/10 04:41:19;;;;;;;27.45;24.85;;;15.10;99.90;;;;;;5095313;28;20047;-45
2022/09/10 04:43:46;;;;;;;29.88;25.17;;;15.10;99.90;;;;;;5090779;28;20047;-43
2022/09/10 04:46:12;;;;;;;28.80;25.77;;;15.10;99.90;;;;;;5094166;27;20100;-48
2022/09/10 04:48:41;;;;;;;32.63;23.90;;;15.10;99.90;;;;;;5092119;28;20052;-54
2022/09/10 04:51:12;;;;;;;31.48;26.70;;;15.10;99.90;;;;;;5075771;28;20051;-52
2022/09/10 04:53:40;;;;;;;35.45;25.95;;;15.10;99.90;;;;;;5089134;28;20048;-50
2022/09/10 04:56:07;;;;;;;32.22;26.77;;;15.10;99.90;;;;;;5074740;28;20100;-51
2022/09/10 04:58:36;;;;;;;31.60;25.95;;;15.10;99.90;;;;;;5093713;28;20051;-52
2022/09/10 05:01:02;;;;;;;38.15;26.17;;;15.10;99.90;;;;;;5072504;28;20047;-49
2022/09/10 05:03:29;;;;;;;38.08;26.67;;;15.20;99.90;;;;;;5087270;28;20055;-45
2022/09/10 05:05:55;;;;;;;38.83;28.25;;;15.10;99.90;;;;;;5093325;27;20047;-45
2022/09/10 05:08:22;;;;;;;36.58;26.48;;;15.10;99.90;;;;;;5041332;28;20120;-51
2022/09/10 05:10:54;;;;;;;34.17;26.95;;;15.20;99.90;;;;;;5107212;27;20578;-49
2022/09/10 05:13:23;;;;;;;39.50;28.67;;;15.20;99.90;;;;;;5038010;28;20144;-43
2022/09/10 05:15:49;;;;;;;40.83;26.02;;;15.20;99.90;;;;;;5106219;27;20039;-47
2022/09/10 05:18:16;;;;;;;35.30;26.15;;;15.20;99.90;;;;;;5073789;28;20494;-43
2022/09/10 05:20:43;;;;;;;39.72;28.35;;;15.20;99.90;;;;;;5055317;28;20047;-44
2022/09/10 05:23:10;;;;;;;35.05;28.27;;;15.20;99.90;;;;;;5072975;28;20051;-49
2022/09/10 05:25:36;;;;;;;34.22;28.52;;;15.30;99.90;;;;;;5064300;28;20506;-47
2022/09/10 05:28:04;;;;;;;37.10;27.83;;;15.30;99.90;;;;;;5073076;28;20082;-51
2022/09/10 05:30:31;;;;;;;39.28;29.83;;;15.30;99.90;;;;;;5090705;28;20054;-49
2022/09/10 05:32:59;;;;;;;42.22;29.55;;;15.30;99.90;;;;;;5075874;28;20824;-49
2022/09/10 05:35:28;;;;;;;39.88;27.63;;;15.30;99.90;;;;;;5061249;28;20072;-49
2022/09/10 05:37:59;;;;;;;36.30;29.63;;;15.30;99.90;;;;;;5094530;28;20427;-49
2022/09/10 05:40:27;;;;;;;39.78;29.65;;;15.30;99.90;;;;;;5093588;28;20039;-52
2022/09/10 05:42:54;;;;;;;38.25;28.02;;;15.40;99.90;;;;;;5093430;28;20036;-45
2022/09/10 05:45:22;;;;;;;44.50;29.83;;;15.40;99.90;;;;;;5094530;28;20044;-44
2022/09/10 05:47:49;;;;;;;42.05;28.55;;;15.40;99.90;;;;;;5094504;28;20043;-51
2022/09/10 05:50:20;;;;;;;41.95;28.98;;;15.40;99.90;;;;;;5060992;28;20447;-46
2022/09/10 05:52:46;;;;;;;39.83;29.88;;;15.40;99.90;;;;;;5094664;28;20643;-46
2022/09/10 05:55:12;;;;;;;41.33;29.48;;;15.40;99.90;;;;;;5076480;28;20624;-45
2022/09/10 05:57:41;;;;;;;39.53;28.80;;;15.40;99.90;;;;;;5093586;28;20136;-50
2022/09/10 06:00:11;;;;;;;38.63;29.10;;;15.50;99.90;;;;;;5094629;28;20518;-49
2022/09/10 06:02:41;;;;;;;43.72;30.63;;;15.50;99.90;;;;;;5094303;28;20040;-43
2022/09/10 06:05:21;;;;;;;40.65;29.23;;;15.50;99.90;;;;;;5098059;28;20128;-49
2022/09/10 06:07:49;;;;;;;41.45;29.95;;;15.60;99.90;;;;;;5029896;28;20210;-49
2022/09/10 06:10:15;;;;;;;33.42;29.05;;;15.60;99.90;;;;;;5096545;28;20055;-51
2022/09/10 06:12:46;;;;;;;39.15;28.63;;;15.60;99.90;;;;;;5062798;28;20043;-52
2022/09/10 06:15:13;;;;;;;37.13;28.48;;;15.60;99.90;;;;;;5080916;28;20114;-45
2022/09/10 06:17:41;;;;;;;36.35;29.08;;;15.70;99.90;;;;;;5095770;28;20047;-51
2022/09/10 06:20:08;;;;;;;39.50;29.27;;;15.70;99.90;;;;;;5065855;28;20224;-44
2022/09/10 06:22:38;;;;;;;34.77;29.27;;;15.70;99.90;;;;;;5078490;28;20062;-45
2022/09/10 06:25:05;;;;;;;37.75;29.40;;;15.80;99.90;;;;;;5063974;28;20051;-47
2022/09/10 06:27:32;;;;;;;36.80;28.23;;;15.80;99.90;;;;;;5077283;28;20410;-44
2022/09/10 06:30:00;;;;;;;35.22;28.33;;;15.80;99.90;;;;;;5079603;28;20079;-46
2022/09/10 06:32:26;;;;;;;36.85;28.92;;;15.80;99.90;;;;;;5093968;28;20071;-45
2022/09/10 06:34:53;;;;;;;34.33;27.45;;;15.90;99.90;;;;;;5095395;28;20043;-48
2022/09/10 06:37:20;;;;;;;35.70;28.23;;;15.90;99.90;;;;;;5075305;28;20556;-47
2022/09/10 06:39:46;;;;;;;38.63;28.02;;;15.90;99.90;;;;;;5079236;28;20270;-45
2022/09/10 06:42:14;;;;;;;40.88;28.85;;;15.90;99.90;;;;;;5059778;28;21383;-45
2022/09/10 06:44:59;;;;;;;36.95;27.77;;;15.90;99.90;;;;;;5092757;28;20047;-42
2022/09/10 06:47:59;;;;;;;36.25;27.98;;;16.00;99.90;;;;;;5055891;28;20092;-44
2022/09/10 06:50:27;;;;;;;35.50;28.67;;;16.00;99.90;;;;;;5095671;28;20042;-43
2022/09/10 06:52:56;;;;;;;36.33;29.52;;;16.10;99.90;;;;;;5096125;28;20039;-45
2022/09/10 06:55:22;;;;;;;36.00;28.05;;;16.20;99.90;;;;;;5096181;28;20078;-48
2022/09/10 06:57:52;;;;;;;33.97;27.27;;;16.20;99.90;;;;;;5070177;28;20126;-45
2022/09/10 07:00:19;;;;;;;30.35;26.73;;;16.30;99.90;;;;;;5097543;28;20051;-43
2022/09/10 07:02:51;;;;;;;36.35;27.70;;;16.20;99.90;;;;;;5077222;28;20341;-46
2022/09/10 07:05:17;;;;;;;33.35;27.05;;;16.20;99.90;;;;;;5094976;28;20055;-45
2022/09/10 07:07:45;;;;;;;33.80;27.13;;;16.30;99.90;;;;;;5079735;27;20066;-42
2022/09/10 07:10:12;;;;;;;34.45;27.75;;;16.40;99.90;;;;;;5076013;28;20048;-46
2022/09/10 07:12:38;;;;;;;32.15;27.23;;;16.40;99.90;;;;;;5098923;27;20051;-42
2022/09/10 07:15:06;;;;;;;33.35;27.63;;;16.50;99.90;;;;;;5079861;28;20040;-45
2022/09/10 07:17:35;;;;;;;30.73;26.83;;;16.50;99.90;;;;;;5058571;28;20052;-45
2022/09/10 07:20:03;;;;;;;31.35;26.90;;;16.50;99.90;;;;;;5093659;27;20107;-46
2022/09/10 07:22:42;;;;;;;35.83;26.20;;;16.50;99.90;;;;;;5098090;28;20134;-43
2022/09/10 07:25:09;;;;;;;34.33;26.13;;;16.50;99.90;;;;;;5096957;28;20101;-43
2022/09/10 07:28:13;;;;;;;29.63;24.98;;;16.50;99.90;;;;;;5056144;28;20087;-44
2022/09/10 07:30:45;;;;;;;31.98;25.60;;;16.60;99.90;;;;;;5079817;28;20486;-46
2022/09/10 07:33:12;;;;;;;31.98;25.02;;;16.60;99.90;;;;;;5076857;28;20262;-46
2022/09/10 07:35:41;;;;;;;32.42;24.73;;;16.60;99.90;;;;;;5095575;28;20379;-42
2022/09/10 07:38:15;;;;;;;26.40;23.60;;;16.70;99.90;;;;;;5077447;28;20054;-45
2022/09/10 07:40:43;;;;;;;27.83;23.48;;;16.70;99.90;;;;;;5077473;28;20134;-45
2022/09/10 07:43:09;;;;;;;25.00;20.98;;;16.80;99.90;;;;;;5093909;28;20051;-42
2022/09/10 07:45:35;;;;;;;27.38;20.55;;;16.90;99.90;;;;;;5096523;27;20078;-54
2022/09/10 07:48:03;;;;;;;24.30;21.20;;;17.00;99.90;;;;;;5077442;28;20047;-55
2022/09/10 07:50:34;;;;;;;23.77;21.00;;;17.30;99.90;;;;;;5095934;28;20074;-51
2022/09/10 07:53:01;;;;;;;24.77;21.70;;;17.50;99.90;;;;;;5066217;28;20122;-58
2022/09/10 07:55:30;;;;;;;22.63;20.23;;;17.80;99.90;;;;;;5078470;28;20031;-55
2022/09/10 07:57:58;;;;;;;23.83;19.60;;;18.00;99.90;;;;;;5089678;28;20039;-52
2022/09/10 08:00:24;;;;;;;23.02;18.42;;;18.10;99.90;;;;;;5098756;27;20044;-54
2022/09/10 08:02:55;;;;;;;23.13;19.92;;;18.30;99.90;;;;;;5097087;28;20112;-44
2022/09/10 08:05:22;;;;;;;21.48;18.67;;;18.30;99.90;;;;;;5088337;28;20055;-44
2022/09/10 08:07:53;;;;;;;20.15;17.90;;;18.30;99.90;;;;;;5097258;28;20362;-48
2022/09/10 08:10:20;;;;;;;21.85;18.42;;;18.30;99.90;;;;;;5046832;28;20514;-46
2022/09/10 08:12:48;;;;;;;18.70;16.92;;;18.30;99.90;;;;;;5064745;28;20051;-45
2022/09/10 08:15:15;;;;;;;19.55;17.50;;;18.20;99.90;;;;;;5079359;28;20046;-55
2022/09/10 08:17:43;;;;;;;18.25;16.02;;;18.20;99.90;;;;;;5074988;28;20052;-44
2022/09/10 08:20:09;;;;;;;19.00;17.10;;;18.10;99.90;;;;;;5094407;28;20127;-48
2022/09/10 08:22:37;;;;;;;20.35;18.27;;;18.10;99.90;;;;;;5098280;27;20055;-46
2022/09/10 08:25:04;;;;;;;19.35;17.27;;;18.30;99.90;;;;;;5097799;28;20039;-45
2022/09/10 08:27:34;;;;;;;20.85;18.65;;;18.50;99.90;;;;;;5099558;28;20510;-55
2022/09/10 08:30:02;;;;;;;20.48;18.08;;;18.60;99.90;;;;;;5077296;28;20043;-52
2022/09/10 08:32:29;;;;;;;18.75;16.70;;;18.80;99.90;;;;;;5092875;28;20396;-53
2022/09/10 08:34:56;;;;;;;17.55;15.75;;;18.80;99.90;;;;;;5079478;28;20365;-52
2022/09/10 08:37:24;;;;;;;17.60;15.80;;;18.90;99.90;;;;;;5075984;28;20708;-55
2022/09/10 08:39:50;;;;;;;17.25;15.52;;;18.90;99.90;;;;;;5095778;28;20086;-55
2022/09/10 08:42:38;;;;;;;18.63;16.00;;;18.70;99.90;;;;;;5096019;27;20052;-59
2022/09/10 08:45:18;;;;;;;18.27;16.27;;;18.60;99.90;;;;;;5095566;27;20051;-56
2022/09/10 08:47:57;;;;;;;18.58;15.65;;;18.60;99.90;;;;;;5092194;28;20043;-54
2022/09/10 08:50:43;;;;;;;15.57;13.98;;;18.70;99.90;;;;;;5098848;28;20499;-55
2022/09/10 08:53:21;;;;;;;13.30;12.00;;;18.80;99.90;;;;;;5099349;28;20035;-56
2022/09/10 08:55:50;;;;;;;12.02;10.60;;;18.70;99.90;;;;;;5078000;28;20036;-55
2022/09/10 08:58:22;;;;;;;14.18;12.05;;;18.80;99.90;;;;;;5088245;28;20498;-54
2022/09/10 09:00:53;;;;;;;12.57;11.18;;;18.80;99.90;;;;;;5079585;28;20059;-55
2022/09/10 09:03:34;;;;;;;12.90;11.60;;;18.90;99.90;;;;;;5073107;28;20047;-53
2022/09/10 09:06:02;;;;;;;13.73;10.55;;;19.30;99.90;;;;;;5109652;27;20047;-54
2022/09/10 09:08:48;;;;;;;12.18;10.32;;;19.60;99.90;;;;;;5080352;28;20039;-54
2022/09/10 09:11:18;;;;;;;12.75;8.20;;;19.90;99.90;;;;;;5097814;28;20060;-55
2022/09/10 09:14:00;;;;;;;8.55;7.05;;;20.20;99.90;;;;;;5092839;27;20102;-55
2022/09/10 09:16:50;;;;;;;8.65;6.25;;;20.30;99.90;;;;;;5092994;28;20512;-55
2022/09/10 09:19:32;;;;;;;8.68;6.72;;;20.40;99.90;;;;;;5091865;27;20043;-53
2022/09/10 09:22:18;;;;;;;13.07;6.45;;;20.70;99.90;;;;;;5092729;28;20160;-45
2022/09/10 09:25:11;;;;;;;7.50;5.93;;;20.70;99.90;;;;;;5094990;28;20392;-45
2022/09/10 09:27:42;;;;;;;8.00;6.07;;;20.80;99.90;;;;;;5090730;28;20252;-45
2022/09/10 09:30:18;;;;;;;;;;;20.80;99.90;;;;;;5097285;28;20051;-46
2022/09/10 09:32:46;;;;;;;7.15;5.47;;;20.80;99.90;;;;;;5098100;28;19966;-49
2022/09/10 09:35:33;;;;;;;7.47;5.13;;;21.00;99.90;;;;;;5078507;28;20525;-43
2022/09/10 09:38:05;;;;;;;8.68;6.18;;;20.80;99.90;;;;;;5096718;28;20119;-43
2022/09/10 09:40:39;;;;;;;6.68;4.78;;;20.90;99.90;;;;;;5080662;28;20059;-44
2022/09/10 09:43:22;;;;;;;14.88;12.40;;;20.90;99.90;;;;;;5097850;28;20354;-42
2022/09/10 09:45:52;;;;;;;12.02;9.13;;;21.10;99.90;;;;;;5097776;27;20052;-42
2022/09/10 09:48:20;;;;;;;23.50;21.38;;;21.40;99.90;;;;;;5078518;28;20569;-42
2022/09/10 09:50:54;;;;;;;8.48;5.15;;;21.80;99.90;;;;;;5095863;28;20051;-46
2022/09/10 09:53:26;;;;;;;7.05;5.15;;;22.10;99.90;;;;;;5067397;28;20048;-45
2022/09/10 09:56:00;;;;;;;8.32;5.05;;;21.80;99.90;;;;;;5093566;28;20039;-43
2022/09/10 09:58:32;;;;;;;11.23;9.73;;;22.40;99.90;;;;;;5098094;28;20035;-42
2022/09/10 10:01:04;;;;;;;9.02;6.22;;;22.30;99.90;;;;;;5094599;27;20051;-45
2022/09/10 10:03:43;;;;;;;10.30;6.13;;;22.40;99.90;;;;;;5095268;28;20054;-45
2022/09/10 10:06:11;;;;;;;9.52;5.28;;;22.10;99.90;;;;;;5089774;28;20054;-45
2022/09/10 10:09:19;;;;;;;10.20;7.32;;;22.00;99.90;;;;;;5099471;28;20085;-43
2022/09/10 10:11:55;;;;;;;8.85;4.93;;;22.10;99.90;;;;;;5113614;27;20526;-43
2022/09/10 10:14:24;;;;;;;11.82;8.93;;;22.30;99.90;;;;;;5096261;28;20043;-42
2022/09/10 10:16:53;;;;;;;8.13;5.50;;;22.50;99.90;;;;;;5097190;28;20051;-57
2022/09/10 10:19:37;;;;;;;10.07;8.48;;;22.80;99.90;;;;;;5095297;28;20311;-57
2022/09/10 10:22:18;;;;;;;12.13;9.45;;;23.00;99.90;;;;;;5090711;28;20529;-56
2022/09/10 10:24:47;;;;;;;12.20;9.88;;;22.90;99.90;;;;;;5063617;28;20040;-57
2022/09/10 10:27:29;;;;;;;11.43;9.32;;;22.70;99.90;;;;;;5078442;28;20047;-56
2022/09/10 10:30:01;;;;;;;11.18;8.15;;;22.80;99.90;;;;;;5095627;28;20047;-56
2022/09/10 10:32:33;;;;;;;16.55;14.95;;;23.10;99.90;;;;;;5072734;28;20039;-45
2022/09/10 10:35:25;;;;;;;16.05;11.73;;;23.20;99.90;;;;;;5098041;28;20036;-56
2022/09/10 10:38:00;;;;;;;10.43;7.18;;;23.20;99.90;;;;;;5093547;28;20191;-55
2022/09/10 10:40:42;;;;;;;10.13;8.20;;;23.20;99.90;;;;;;5107613;27;20046;-56
2022/09/10 10:43:35;;;;;;;15.20;13.48;;;23.00;99.90;;;;;;5070859;28;20048;-45
2022/09/10 10:46:19;;;;;;;12.52;11.27;;;22.80;99.90;;;;;;5094096;28;20043;-44
2022/09/10 10:48:48;;;;;;;10.13;7.25;;;22.70;99.90;;;;;;5092241;28;20548;-58
2022/09/10 11:00:48;;;;;;;23.65;20.83;;;22.80;99.90;;;;;;5090058;28;20422;-45
2022/09/10 11:03:26;;;;;;;24.52;22.25;;;22.70;99.90;;;;;;5090865;28;20066;-44
2022/09/10 11:06:28;;;;;;;17.23;14.95;;;22.40;99.90;;;;;;5090442;28;20131;-44
2022/09/10 11:09:05;;;;;;;16.77;15.07;;;22.30;99.90;;;;;;5073377;28;20134;-46
2022/09/10 11:11:39;;;;;;;19.77;17.73;;;22.30;99.90;;;;;;5088941;28;20052;-48
2022/09/10 11:14:22;;;;;;;13.15;10.88;;;22.40;99.90;;;;;;5090110;28;20112;-46
2022/09/10 11:17:17;;;;;;;11.02;8.35;;;22.30;99.90;;;;;;5088342;28;20052;-43
2022/09/10 11:19:58;;;;;;;21.45;19.45;;;22.80;99.90;;;;;;5071061;28;20048;-46
2022/09/10 11:22:33;;;;;;;10.90;7.47;;;23.10;99.90;;;;;;5088344;28;20055;-45
2022/09/10 11:25:16;;;;;;;8.18;6.68;;;23.30;99.90;;;;;;5090989;28;20098;-45
2022/09/10 11:27:48;;;;;;;9.52;7.07;;;23.70;99.90;;;;;;5091498;28;20406;-44
2022/09/10 11:30:16;;;;;;;8.52;6.20;;;23.60;99.90;;;;;;5090249;28;20090;-43
2022/09/10 11:33:08;;;;;;;7.75;5.55;;;23.60;99.90;;;;;;5093291;28;20558;-47
2022/09/10 11:35:58;;;;;;;11.02;5.60;;;23.90;99.90;;;;;;5089663;28;20047;-44
2022/09/10 11:38:51;;;;;;;14.48;12.90;;;24.20;99.90;;;;;;5095816;28;20180;-52
2022/09/10 11:41:22;;;;;;;20.92;18.02;;;24.30;99.90;;;;;;5074088;28;20066;-53
2022/09/10 11:43:57;;;;;;;9.70;6.57;;;24.50;99.90;;;;;;5095599;28;20373;-53
2022/09/10 11:46:31;;;;;;;9.95;6.43;;;24.30;99.90;;;;;;5093185;28;20048;-52
2022/09/10 11:49:09;;;;;;;8.52;6.00;;;24.20;99.90;;;;;;5096258;28;20448;-44
2022/09/10 11:51:37;;;;;;;7.90;5.82;;;24.10;99.90;;;;;;5094542;28;20493;-43
2022/09/10 11:54:24;;;;;;;7.35;5.75;;;24.00;99.90;;;;;;5095150;28;20505;-45
2022/09/10 11:57:21;;;;;;;15.50;11.48;;;24.30;99.90;;;;;;5093455;28;20042;-47
2022/09/10 12:00:00;;;;;;;8.77;6.93;;;24.20;99.90;;;;;;5090411;28;20571;-44
2022/09/10 12:02:36;;;;;;;7.07;4.80;;;24.20;99.90;;;;;;5094089;28;20043;-45
2022/09/10 12:05:07;;;;;;;8.02;4.93;;;24.30;99.90;;;;;;5043246;28;20132;-53
2022/09/10 12:07:55;;;;;;;7.82;4.85;;;24.60;99.90;;;;;;5111656;27;21107;-54
2022/09/10 12:10:46;;;;;;;6.65;5.25;;;24.70;99.90;;;;;;5076325;28;20055;-58
2022/09/10 12:13:16;;;;;;;8.57;5.78;;;25.20;99.90;;;;;;5091143;28;20091;-53
2022/09/10 12:15:56;;;;;;;9.48;5.05;;;25.40;99.90;;;;;;5091283;28;20051;-50
2022/09/10 12:18:27;;;;;;;6.03;3.85;;;25.90;99.90;;;;;;5076729;28;20058;-46
2022/09/10 12:20:58;;;;;;;44.60;40.50;;;26.40;99.90;;;;;;5094637;28;20372;-48
2022/09/10 12:23:34;;;;;;;8.30;4.80;;;26.40;99.90;;;;;;5092596;28;20981;-54
2022/09/10 12:26:14;;;;;;;11.43;7.80;;;26.00;99.90;;;;;;5072679;28;20130;-45
2022/09/10 12:28:40;;;;;;;9.75;5.95;;;25.20;99.90;;;;;;5076895;28;20074;-44
2022/09/10 12:31:10;;;;;;;13.07;11.40;;;25.10;99.90;;;;;;5090281;28;20406;-50
2022/09/10 12:33:42;;;;;;;13.95;9.15;;;24.80;99.90;;;;;;5095187;27;20075;-50
2022/09/10 12:36:13;;;;;;;20.75;18.60;;;24.50;99.90;;;;;;5092356;28;20123;-51
2022/09/10 12:39:05;;;;;;;11.52;7.88;;;24.30;99.90;;;;;;5092821;28;20040;-53
2022/09/10 12:41:32;;;;;;;7.55;6.13;;;24.20;99.90;;;;;;5092019;28;20054;-51
2022/09/10 12:43:59;;;;;;;59.05;53.53;;;24.20;99.90;;;;;;5091852;28;20393;-53
2022/09/10 12:46:27;;;;;;;9.25;8.02;;;24.30;99.90;;;;;;5058768;28;20055;-53
2022/09/10 12:48:54;;;;;;;12.77;11.40;;;24.30;99.90;;;;;;5092467;28;20048;-55
2022/09/10 12:51:49;;;;;;;12.02;7.95;;;25.00;99.90;;;;;;5078602;28;20040;-53
2022/09/10 12:54:40;;;;;;;19.23;17.10;;;25.30;99.90;;;;;;5106804;27;20051;-43
2022/09/10 12:57:23;;;;;;;22.73;18.67;;;25.70;99.90;;;;;;5095071;28;20043;-42
2022/09/10 13:00:16;;;;;;;10.35;6.65;;;25.90;99.90;;;;;;5094140;28;20130;-42
2022/09/10 13:02:59;;;;;;;34.63;31.08;;;25.90;99.90;;;;;;5073348;28;20050;-42
2022/09/10 13:05:30;;;;;;;9.82;6.43;;;25.80;99.90;;;;;;5112317;27;20043;-42
2022/09/10 13:08:07;;;;;;;9.32;7.57;;;25.40;99.90;;;;;;5091733;28;20175;-44